sensor_id;sensor_type;location;lat;lon;timestamp;pressure;altitude;pressure_sealevel;temperature;humidity
62201;BME280;48197;42.732;27.192;2023-04-07T00:02:12;99520.34;;;5.85;100.00
62201;BME280;48197;42.732;27.192;2023-04-07T00:04:39;99518.75;;;5.81;98.01
62201;BME280;48197;42.732;27.192;2023-04-07T00:07:05;99522.72;;;5.87;95.01
62201;BME280;48197;42.732;27.192;2023-04-07T00:09:32;99524.31;;;5.88;97.44
62201;BME280;48197;42.732;27.192;2023-04-07T00:11:58;99517.25;;;5.87;99.07
62201;BME280;48197;42.732;27.192;2023-04-07T00:14:27;99514.06;;;5.81;100.00
62201;BME280;48197;42.732;27.192;2023-04-07T00:16:54;99525.38;;;5.80;100.00
62201;BME280;48197;42.732;27.192;2023-04-07T00:19:21;99515.59;;;5.79;100.00
62201;BME280;48197;42.732;27.192;2023-04-07T00:21:48;99521.03;;;5.75;100.00
62201;BME280;48197;42.732;27.192;2023-04-07T00:24:15;99517.47;;;5.71;100.00
62201;BME280;48197;42.732;27.192;2023-04-07T00:26:42;99515.09;;;5.69;96.74
62201;BME280;48197;42.732;27.192;2023-04-07T00:29:08;99510.84;;;5.72;92.38
62201;BME280;48197;42.732;27.192;2023-04-07T00:31:34;99510.41;;;5.70;90.65
62201;BME280;48197;42.732;27.192;2023-04-07T00:34:01;99513.94;;;5.70;89.93
62201;BME280;48197;42.732;27.192;2023-04-07T00:36:27;99509.25;;;5.71;87.57
62201;BME280;48197;42.732;27.192;2023-04-07T00:38:54;99506.47;;;5.67;83.74
62201;BME280;48197;42.732;27.192;2023-04-07T00:41:20;99510.44;;;5.73;85.38
62201;BME280;48197;42.732;27.192;2023-04-07T00:43:46;99502.59;;;5.72;84.94
62201;BME280;48197;42.732;27.192;2023-04-07T00:46:15;99505.03;;;5.81;81.63
62201;BME280;48197;42.732;27.192;2023-04-07T00:48:42;99503.75;;;5.71;83.80
62201;BME280;48197;42.732;27.192;2023-04-07T00:51:08;99502.53;;;5.65;84.17
62201;BME280;48197;42.732;27.192;2023-04-07T00:53:35;99507.59;;;5.63;85.32
62201;BME280;48197;42.732;27.192;2023-04-07T00:56:02;99503.97;;;5.51;84.84
62201;BME280;48197;42.732;27.192;2023-04-07T00:58:29;99512.13;;;5.48;84.89
62201;BME280;48197;42.732;27.192;2023-04-07T01:01:06;99515.28;;;5.50;85.67
62201;BME280;48197;42.732;27.192;2023-04-07T01:03:35;99517.59;;;5.44;87.98
62201;BME280;48197;42.732;27.192;2023-04-07T01:06:05;99514.34;;;5.35;90.04
62201;BME280;48197;42.732;27.192;2023-04-07T01:11:36;99519.81;;;5.31;89.34
62201;BME280;48197;42.732;27.192;2023-04-07T01:14:05;99512.72;;;5.30;86.34
62201;BME280;48197;42.732;27.192;2023-04-07T01:16:35;99516.66;;;5.33;86.21
62201;BME280;48197;42.732;27.192;2023-04-07T01:19:35;99512.00;;;5.37;84.52
62201;BME280;48197;42.732;27.192;2023-04-07T01:21:56;99509.31;;;5.41;84.24
62201;BME280;48197;42.732;27.192;2023-04-07T01:26:49;99512.53;;;5.46;83.70
62201;BME280;48197;42.732;27.192;2023-04-07T01:29:23;99521.53;;;5.47;83.57
62201;BME280;48197;42.732;27.192;2023-04-07T01:31:53;99518.44;;;5.52;83.07
62201;BME280;48197;42.732;27.192;2023-04-07T01:34:21;99520.88;;;5.57;83.79
62201;BME280;48197;42.732;27.192;2023-04-07T01:36:49;99523.19;;;5.55;82.41
62201;BME280;48197;42.732;27.192;2023-04-07T01:39:16;99521.66;;;5.58;82.11
62201;BME280;48197;42.732;27.192;2023-04-07T01:41:42;99520.47;;;5.59;82.14
62201;BME280;48197;42.732;27.192;2023-04-07T01:44:10;99523.59;;;5.57;81.72
62201;BME280;48197;42.732;27.192;2023-04-07T01:46:37;99522.38;;;5.55;81.03
62201;BME280;48197;42.732;27.192;2023-04-07T01:49:03;99519.69;;;5.58;79.99
62201;BME280;48197;42.732;27.192;2023-04-07T01:51:31;99512.97;;;5.52;80.56
62201;BME280;48197;42.732;27.192;2023-04-07T01:53:59;99518.75;;;5.43;80.17
62201;BME280;48197;42.732;27.192;2023-04-07T01:56:26;99522.72;;;5.49;79.88
62201;BME280;48197;42.732;27.192;2023-04-07T01:58:53;99527.00;;;5.47;79.24
62201;BME280;48197;42.732;27.192;2023-04-07T02:01:20;99522.44;;;5.58;77.71
62201;BME280;48197;42.732;27.192;2023-04-07T02:03:55;99523.63;;;5.61;80.03
62201;BME280;48197;42.732;27.192;2023-04-07T02:06:26;99521.53;;;5.47;80.00
62201;BME280;48197;42.732;27.192;2023-04-07T02:08:58;99523.06;;;5.44;80.90
62201;BME280;48197;42.732;27.192;2023-04-07T02:11:25;99529.28;;;5.41;80.53
62201;BME280;48197;42.732;27.192;2023-04-07T02:13:53;99524.09;;;5.32;80.16
62201;BME280;48197;42.732;27.192;2023-04-07T02:16:21;99514.31;;;5.31;82.09
62201;BME280;48197;42.732;27.192;2023-04-07T02:18:48;99525.19;;;5.24;82.08
62201;BME280;48197;42.732;27.192;2023-04-07T02:21:15;99533.81;;;5.26;82.77
62201;BME280;48197;42.732;27.192;2023-04-07T02:23:43;99527.91;;;5.21;81.54
62201;BME280;48197;42.732;27.192;2023-04-07T02:26:10;99518.13;;;5.23;81.46
62201;BME280;48197;42.732;27.192;2023-04-07T02:28:36;99523.63;;;5.23;82.42
62201;BME280;48197;42.732;27.192;2023-04-07T02:31:03;99526.34;;;5.23;80.98
62201;BME280;48197;42.732;27.192;2023-04-07T02:33:29;99533.09;;;5.29;80.70
62201;BME280;48197;42.732;27.192;2023-04-07T02:35:55;99522.97;;;5.34;82.50
62201;BME280;48197;42.732;27.192;2023-04-07T02:38:22;99530.72;;;5.28;81.87
62201;BME280;48197;42.732;27.192;2023-04-07T02:40:48;99528.38;;;5.30;81.78
62201;BME280;48197;42.732;27.192;2023-04-07T02:43:15;99527.63;;;5.33;81.48
62201;BME280;48197;42.732;27.192;2023-04-07T02:45:43;99534.66;;;5.30;81.58
62201;BME280;48197;42.732;27.192;2023-04-07T02:48:09;99521.84;;;5.38;80.73
62201;BME280;48197;42.732;27.192;2023-04-07T02:50:36;99538.28;;;5.38;80.50
62201;BME280;48197;42.732;27.192;2023-04-07T02:53:03;99544.91;;;5.37;80.38
62201;BME280;48197;42.732;27.192;2023-04-07T02:55:29;99540.25;;;5.41;80.78
62201;BME280;48197;42.732;27.192;2023-04-07T02:57:55;99545.78;;;5.45;80.84
62201;BME280;48197;42.732;27.192;2023-04-07T03:00:21;99552.81;;;5.42;80.63
62201;BME280;48197;42.732;27.192;2023-04-07T03:02:48;99536.38;;;5.46;80.72
62201;BME280;48197;42.732;27.192;2023-04-07T03:05:15;99541.44;;;5.40;81.19
62201;BME280;48197;42.732;27.192;2023-04-07T03:07:41;99549.66;;;5.40;82.30
62201;BME280;48197;42.732;27.192;2023-04-07T03:10:08;99537.88;;;5.40;81.93
62201;BME280;48197;42.732;27.192;2023-04-07T03:12:35;99556.69;;;5.41;81.34
62201;BME280;48197;42.732;27.192;2023-04-07T03:15:01;99548.13;;;5.43;82.92
62201;BME280;48197;42.732;27.192;2023-04-07T03:17:28;99558.72;;;5.44;83.42
62201;BME280;48197;42.732;27.192;2023-04-07T03:19:55;99562.66;;;5.47;82.64
62201;BME280;48197;42.732;27.192;2023-04-07T03:22:22;99564.97;;;5.45;82.48
62201;BME280;48197;42.732;27.192;2023-04-07T03:24:48;99565.34;;;5.43;81.23
62201;BME280;48197;42.732;27.192;2023-04-07T03:27:15;99564.97;;;5.45;81.04
62201;BME280;48197;42.732;27.192;2023-04-07T03:29:43;99563.03;;;5.45;82.01
62201;BME280;48197;42.732;27.192;2023-04-07T03:32:09;99572.38;;;5.41;80.33
62201;BME280;48197;42.732;27.192;2023-04-07T03:34:35;99571.25;;;5.45;81.05
62201;BME280;48197;42.732;27.192;2023-04-07T03:37:02;99588.09;;;5.47;81.26
62201;BME280;48197;42.732;27.192;2023-04-07T03:39:28;99578.72;;;5.48;81.31
62201;BME280;48197;42.732;27.192;2023-04-07T03:41:56;99583.81;;;5.50;82.71
62201;BME280;48197;42.732;27.192;2023-04-07T03:44:22;99595.97;;;5.49;87.10
62201;BME280;48197;42.732;27.192;2023-04-07T03:46:49;99597.50;;;5.46;89.21
62201;BME280;48197;42.732;27.192;2023-04-07T03:49:15;99594.38;;;5.48;90.17
62201;BME280;48197;42.732;27.192;2023-04-07T03:51:42;99594.38;;;5.48;93.52
62201;BME280;48197;42.732;27.192;2023-04-07T03:54:08;99593.94;;;5.46;94.49
62201;BME280;48197;42.732;27.192;2023-04-07T03:56:35;99599.84;;;5.48;94.32
62201;BME280;48197;42.732;27.192;2023-04-07T03:59:01;99605.38;;;5.51;91.21
62201;BME280;48197;42.732;27.192;2023-04-07T04:01:28;99605.44;;;5.55;89.41
62201;BME280;48197;42.732;27.192;2023-04-07T04:03:54;99609.81;;;5.60;86.34
62201;BME280;48197;42.732;27.192;2023-04-07T04:06:20;99611.78;;;5.63;89.96
62201;BME280;48197;42.732;27.192;2023-04-07T04:08:47;99618.84;;;5.64;91.32
62201;BME280;48197;42.732;27.192;2023-04-07T04:11:13;99618.09;;;5.67;95.37
62201;BME280;48197;42.732;27.192;2023-04-07T04:13:40;99616.94;;;5.68;96.37
62201;BME280;48197;42.732;27.192;2023-04-07T04:16:07;99611.84;;;5.66;91.62
62201;BME280;48197;42.732;27.192;2023-04-07T04:18:34;99612.25;;;5.68;90.73
62201;BME280;48197;42.732;27.192;2023-04-07T04:21:01;99604.81;;;5.69;87.70
62201;BME280;48197;42.732;27.192;2023-04-07T04:23:27;99609.50;;;5.68;84.29
62201;BME280;48197;42.732;27.192;2023-04-07T04:25:53;99613.09;;;5.72;83.31
62201;BME280;48197;42.732;27.192;2023-04-07T04:28:20;99608.00;;;5.75;80.88
62201;BME280;48197;42.732;27.192;2023-04-07T04:30:47;99610.78;;;5.78;80.51
62201;BME280;48197;42.732;27.192;2023-04-07T04:33:13;99607.31;;;5.81;80.85
62201;BME280;48197;42.732;27.192;2023-04-07T04:35:42;99620.59;;;5.79;80.53
62201;BME280;48197;42.732;27.192;2023-04-07T04:38:10;99612.78;;;5.81;80.72
62201;BME280;48197;42.732;27.192;2023-04-07T04:40:36;99614.41;;;5.86;81.02
62201;BME280;48197;42.732;27.192;2023-04-07T04:43:03;99620.25;;;5.84;80.17
62201;BME280;48197;42.732;27.192;2023-04-07T04:45:34;99627.38;;;5.89;80.41
62201;BME280;48197;42.732;27.192;2023-04-07T04:48:01;99629.72;;;5.87;79.79
62201;BME280;48197;42.732;27.192;2023-04-07T04:50:28;99633.66;;;5.89;80.13
62201;BME280;48197;42.732;27.192;2023-04-07T04:52:54;99630.16;;;5.92;79.48
62201;BME280;48197;42.732;27.192;2023-04-07T04:55:21;99636.50;;;5.97;79.68
62201;BME280;48197;42.732;27.192;2023-04-07T04:57:48;99640.41;;;5.96;78.86
62201;BME280;48197;42.732;27.192;2023-04-07T05:00:15;99644.00;;;6.00;78.43
62201;BME280;48197;42.732;27.192;2023-04-07T05:02:41;99636.59;;;6.07;78.40
62201;BME280;48197;42.732;27.192;2023-04-07T05:05:07;99640.66;;;6.21;78.58
62201;BME280;48197;42.732;27.192;2023-04-07T05:07:34;99636.81;;;6.25;77.97
62201;BME280;48197;42.732;27.192;2023-04-07T05:10:00;99643.50;;;6.28;76.54
62201;BME280;48197;42.732;27.192;2023-04-07T05:12:27;99651.00;;;6.34;77.69
62201;BME280;48197;42.732;27.192;2023-04-07T05:14:53;99649.81;;;6.36;76.88
62201;BME280;48197;42.732;27.192;2023-04-07T05:17:20;99662.91;;;6.49;77.36
62201;BME280;48197;42.732;27.192;2023-04-07T05:19:47;99668.13;;;6.65;75.91
62201;BME280;48197;42.732;27.192;2023-04-07T05:22:13;99665.53;;;6.80;73.84
62201;BME280;48197;42.732;27.192;2023-04-07T05:24:40;99668.38;;;6.94;72.62
62201;BME280;48197;42.732;27.192;2023-04-07T05:27:07;99662.59;;;7.06;73.00
62201;BME280;48197;42.732;27.192;2023-04-07T05:29:34;99662.63;;;7.13;73.89
62201;BME280;48197;42.732;27.192;2023-04-07T05:32:00;99666.94;;;7.11;72.15
62201;BME280;48197;42.732;27.192;2023-04-07T05:34:27;99679.47;;;7.05;72.70
62201;BME280;48197;42.732;27.192;2023-04-07T05:36:53;99678.97;;;6.95;72.85
62201;BME280;48197;42.732;27.192;2023-04-07T05:39:19;99680.56;;;6.97;73.02
62201;BME280;48197;42.732;27.192;2023-04-07T05:41:46;99676.69;;;7.01;71.52
62201;BME280;48197;42.732;27.192;2023-04-07T05:44:12;99673.22;;;7.11;70.97
62201;BME280;48197;42.732;27.192;2023-04-07T05:46:39;99680.00;;;7.28;70.29
62201;BME280;48197;42.732;27.192;2023-04-07T05:49:05;99679.34;;;7.49;71.51
62201;BME280;48197;42.732;27.192;2023-04-07T05:51:32;99685.31;;;7.62;70.36
62201;BME280;48197;42.732;27.192;2023-04-07T05:54:00;99683.03;;;7.82;69.94
62201;BME280;48197;42.732;27.192;2023-04-07T05:56:27;99677.94;;;7.84;67.38
62201;BME280;48197;42.732;27.192;2023-04-07T05:58:54;99688.59;;;7.93;67.25
62201;BME280;48197;42.732;27.192;2023-04-07T06:01:21;99687.81;;;7.92;60.70
62201;BME280;48197;42.732;27.192;2023-04-07T06:03:47;99691.38;;;8.04;59.59
62201;BME280;48197;42.732;27.192;2023-04-07T06:06:14;99690.66;;;8.25;60.05
62201;BME280;48197;42.732;27.192;2023-04-07T06:08:40;99694.19;;;8.25;57.59
62201;BME280;48197;42.732;27.192;2023-04-07T06:11:07;99695.78;;;8.33;56.83
62201;BME280;48197;42.732;27.192;2023-04-07T06:13:34;99701.69;;;8.32;55.07
62201;BME280;48197;42.732;27.192;2023-04-07T06:16:00;99706.81;;;8.37;56.61
62201;BME280;48197;42.732;27.192;2023-04-07T06:18:27;99711.13;;;8.31;53.99
62201;BME280;48197;42.732;27.192;2023-04-07T06:20:53;99713.50;;;8.32;55.01
62201;BME280;48197;42.732;27.192;2023-04-07T06:23:21;99715.09;;;8.37;55.23
62201;BME280;48197;42.732;27.192;2023-04-07T06:25:47;99717.50;;;8.46;55.06
62201;BME280;48197;42.732;27.192;2023-04-07T06:28:17;99721.47;;;8.81;57.82
62201;BME280;48197;42.732;27.192;2023-04-07T06:30:44;99720.72;;;9.16;59.04
62201;BME280;48197;42.732;27.192;2023-04-07T06:33:10;99726.22;;;9.27;57.63
62201;BME280;48197;42.732;27.192;2023-04-07T06:35:38;99721.50;;;9.09;54.58
62201;BME280;48197;42.732;27.192;2023-04-07T06:38:04;99722.28;;;8.77;53.68
62201;BME280;48197;42.732;27.192;2023-04-07T06:40:31;99728.59;;;8.92;54.42
62201;BME280;48197;42.732;27.192;2023-04-07T06:42:57;99737.25;;;9.23;54.28
62201;BME280;48197;42.732;27.192;2023-04-07T06:45:24;99735.25;;;9.34;53.41
62201;BME280;48197;42.732;27.192;2023-04-07T06:47:51;99739.59;;;9.46;54.24
62201;BME280;48197;42.732;27.192;2023-04-07T06:50:18;99738.00;;;9.34;54.10
62201;BME280;48197;42.732;27.192;2023-04-07T06:52:47;99737.25;;;9.12;53.99
62201;BME280;48197;42.732;27.192;2023-04-07T06:55:13;99740.03;;;9.05;54.43
62201;BME280;48197;42.732;27.192;2023-04-07T06:57:39;99744.72;;;8.90;54.52
62201;BME280;48197;42.732;27.192;2023-04-07T07:00:06;99739.63;;;8.92;56.01
62201;BME280;48197;42.732;27.192;2023-04-07T07:02:34;99751.41;;;8.75;53.95
62201;BME280;48197;42.732;27.192;2023-04-07T07:05:00;99751.03;;;8.73;54.73
62201;BME280;48197;42.732;27.192;2023-04-07T07:07:29;99754.53;;;8.63;53.57
62201;BME280;48197;42.732;27.192;2023-04-07T07:09:56;99754.16;;;8.75;53.14
62201;BME280;48197;42.732;27.192;2023-04-07T07:12:22;99756.97;;;9.18;54.48
62201;BME280;48197;42.732;27.192;2023-04-07T07:14:49;99756.47;;;9.77;56.36
62201;BME280;48197;42.732;27.192;2023-04-07T07:17:15;99761.06;;;10.23;54.78
62201;BME280;48197;42.732;27.192;2023-04-07T07:19:42;99750.97;;;10.76;54.75
62201;BME280;48197;42.732;27.192;2023-04-07T07:22:09;99749.59;;;11.47;53.92
62201;BME280;48197;42.732;27.192;2023-04-07T07:24:36;99758.06;;;12.09;52.53
62201;BME280;48197;42.732;27.192;2023-04-07T07:27:03;99762.38;;;12.13;53.74
62201;BME280;48197;42.732;27.192;2023-04-07T07:29:29;99764.81;;;12.08;54.24
62201;BME280;48197;42.732;27.192;2023-04-07T07:31:55;99761.56;;;12.16;52.87
62201;BME280;48197;42.732;27.192;2023-04-07T07:34:21;99766.47;;;12.01;51.41
62201;BME280;48197;42.732;27.192;2023-04-07T07:36:48;99774.38;;;11.61;51.84
62201;BME280;48197;42.732;27.192;2023-04-07T07:39:14;99774.13;;;11.45;54.62
62201;BME280;48197;42.732;27.192;2023-04-07T07:41:41;99775.94;;;11.17;54.19
62201;BME280;48197;42.732;27.192;2023-04-07T07:44:08;99776.25;;;10.71;53.43
62201;BME280;48197;42.732;27.192;2023-04-07T07:46:34;99771.69;;;10.28;53.47
62201;BME280;48197;42.732;27.192;2023-04-07T07:49:01;99776.91;;;10.05;54.83
62201;BME280;48197;42.732;27.192;2023-04-07T07:51:30;99782.09;;;9.88;56.48
62201;BME280;48197;42.732;27.192;2023-04-07T07:53:56;99778.56;;;9.84;56.01
62201;BME280;48197;42.732;27.192;2023-04-07T07:56:23;99776.16;;;9.97;55.66
62201;BME280;48197;42.732;27.192;2023-04-07T07:58:49;99776.81;;;10.26;54.56
62201;BME280;48197;42.732;27.192;2023-04-07T08:01:16;99781.44;;;10.61;54.72
62201;BME280;48197;42.732;27.192;2023-04-07T08:03:43;99774.78;;;11.11;55.56
62201;BME280;48197;42.732;27.192;2023-04-07T08:06:10;99781.56;;;11.52;56.13
62201;BME280;48197;42.732;27.192;2023-04-07T08:08:37;99781.25;;;11.46;54.13
62201;BME280;48197;42.732;27.192;2023-04-07T08:11:04;99786.03;;;11.38;54.21
62201;BME280;48197;42.732;27.192;2023-04-07T08:13:31;99789.97;;;11.41;55.11
62201;BME280;48197;42.732;27.192;2023-04-07T08:15:57;99783.69;;;11.37;54.88
62201;BME280;48197;42.732;27.192;2023-04-07T08:18:24;99793.75;;;11.61;54.23
62201;BME280;48197;42.732;27.192;2023-04-07T08:20:50;99784.47;;;11.82;54.89
62201;BME280;48197;42.732;27.192;2023-04-07T08:23:18;99787.28;;;11.75;56.18
62201;BME280;48197;42.732;27.192;2023-04-07T08:25:44;99791.56;;;11.83;57.17
62201;BME280;48197;42.732;27.192;2023-04-07T08:28:11;99793.75;;;11.61;56.54
62201;BME280;48197;42.732;27.192;2023-04-07T08:30:38;99790.97;;;11.16;56.99
62201;BME280;48197;42.732;27.192;2023-04-07T08:33:05;99804.63;;;10.82;56.89
62201;BME280;48197;42.732;27.192;2023-04-07T08:35:31;99800.03;;;10.57;57.07
62201;BME280;48197;42.732;27.192;2023-04-07T08:37:58;99800.13;;;10.32;57.52
62201;BME280;48197;42.732;27.192;2023-04-07T08:40:25;99800.94;;;10.22;58.29
62201;BME280;48197;42.732;27.192;2023-04-07T08:42:51;99802.97;;;10.04;57.90
62201;BME280;48197;42.732;27.192;2023-04-07T08:45:18;99806.53;;;9.97;59.46
62201;BME280;48197;42.732;27.192;2023-04-07T08:47:46;99806.56;;;9.82;58.35
62201;BME280;48197;42.732;27.192;2023-04-07T08:50:16;99809.69;;;9.81;58.05
62201;BME280;48197;42.732;27.192;2023-04-07T08:55:12;99812.88;;;9.79;57.19
62201;BME280;48197;42.732;27.192;2023-04-07T08:57:40;99821.13;;;9.97;57.54
62201;BME280;48197;42.732;27.192;2023-04-07T09:00:06;99823.78;;;10.44;58.46
62201;BME280;48197;42.732;27.192;2023-04-07T09:02:35;99815.72;;;10.78;56.98
62201;BME280;48197;42.732;27.192;2023-04-07T09:05:03;99822.84;;;10.76;56.18
62201;BME280;48197;42.732;27.192;2023-04-07T09:07:30;99820.47;;;10.71;55.88
62201;BME280;48197;42.732;27.192;2023-04-07T09:09:58;99826.44;;;10.69;56.35
62201;BME280;48197;42.732;27.192;2023-04-07T09:12:25;99825.59;;;10.72;55.50
62201;BME280;48197;42.732;27.192;2023-04-07T09:14:52;99826.81;;;10.68;56.27
62201;BME280;48197;42.732;27.192;2023-04-07T09:17:19;99830.75;;;10.67;56.75
62201;BME280;48197;42.732;27.192;2023-04-07T09:19:46;99828.44;;;10.61;57.22
62201;BME280;48197;42.732;27.192;2023-04-07T09:22:13;99826.38;;;10.73;56.54
62201;BME280;48197;42.732;27.192;2023-04-07T09:24:43;99829.78;;;11.02;56.31
62201;BME280;48197;42.732;27.192;2023-04-07T09:27:13;99824.47;;;11.29;55.64
62201;BME280;48197;42.732;27.192;2023-04-07T09:29:41;99821.47;;;11.58;55.07
62201;BME280;48197;42.732;27.192;2023-04-07T09:32:08;99817.91;;;12.02;54.49
62201;BME280;48197;42.732;27.192;2023-04-07T09:34:36;99815.78;;;12.48;54.07
62201;BME280;48197;42.732;27.192;2023-04-07T09:37:03;99812.16;;;13.13;53.24
62201;BME280;48197;42.732;27.192;2023-04-07T10:10:32;99825.03;;;12.03;50.06
62201;BME280;48197;42.732;27.192;2023-04-07T10:12:59;99814.84;;;12.62;49.49
62201;BME280;48197;42.732;27.192;2023-04-07T10:15:29;99822.66;;;13.25;49.88
62201;BME280;48197;42.732;27.192;2023-04-07T10:17:56;99812.44;;;13.45;50.21
62201;BME280;48197;42.732;27.192;2023-04-07T10:20:24;99815.63;;;13.67;47.81
62201;BME280;48197;42.732;27.192;2023-04-07T10:22:51;99815.69;;;13.13;47.91
62201;BME280;48197;42.732;27.192;2023-04-07T10:25:20;99821.88;;;12.97;48.27
62201;BME280;48197;42.732;27.192;2023-04-07T10:27:52;99817.31;;;13.11;47.86
62201;BME280;48197;42.732;27.192;2023-04-07T10:30:29;99818.94;;;13.35;48.94
62201;BME280;48197;42.732;27.192;2023-04-07T10:32:56;99820.44;;;14.11;47.91
62201;BME280;48197;42.732;27.192;2023-04-07T10:35:25;99815.06;;;14.00;46.67
62201;BME280;48197;42.732;27.192;2023-04-07T10:40:43;99813.41;;;15.35;46.15
62201;BME280;48197;42.732;27.192;2023-04-07T10:43:11;99811.41;;;14.83;44.35
62201;BME280;48197;42.732;27.192;2023-04-07T10:48:24;99801.13;;;14.23;45.84
62201;BME280;48197;42.732;27.192;2023-04-07T10:53:32;99809.59;;;14.36;46.67
62201;BME280;48197;42.732;27.192;2023-04-07T10:56:00;99807.75;;;14.49;45.95
62201;BME280;48197;42.732;27.192;2023-04-07T10:58:26;99811.09;;;14.61;45.86
62201;BME280;48197;42.732;27.192;2023-04-07T11:03:37;99805.53;;;14.61;44.95
62201;BME280;48197;42.732;27.192;2023-04-07T11:06:08;99806.91;;;14.89;45.83
62201;BME280;48197;42.732;27.192;2023-04-07T11:08:35;99805.84;;;15.19;45.70
62201;BME280;48197;42.732;27.192;2023-04-07T11:11:02;99813.31;;;15.22;45.17
62201;BME280;48197;42.732;27.192;2023-04-07T11:13:41;99809.03;;;15.01;45.26
62201;BME280;48197;42.732;27.192;2023-04-07T11:16:07;99813.09;;;14.97;45.66
62201;BME280;48197;42.732;27.192;2023-04-07T11:18:34;99812.72;;;14.78;45.47
62201;BME280;48197;42.732;27.192;2023-04-07T11:21:01;99801.75;;;14.31;46.35
62201;BME280;48197;42.732;27.192;2023-04-07T11:23:28;99804.88;;;14.33;47.52
62201;BME280;48197;42.732;27.192;2023-04-07T11:26:00;99805.16;;;14.19;47.34
62201;BME280;48197;42.732;27.192;2023-04-07T11:28:27;99801.28;;;13.73;48.10
62201;BME280;48197;42.732;27.192;2023-04-07T11:30:54;99808.75;;;13.52;48.50
62201;BME280;48197;42.732;27.192;2023-04-07T11:33:24;99811.16;;;13.50;49.35
62201;BME280;48197;42.732;27.192;2023-04-07T11:35:52;99807.31;;;13.67;49.73
62201;BME280;48197;42.732;27.192;2023-04-07T11:38:22;99791.72;;;13.74;48.66
62201;BME280;48197;42.732;27.192;2023-04-07T11:40:49;99800.31;;;13.83;48.62
62201;BME280;48197;42.732;27.192;2023-04-07T11:43:17;99797.69;;;13.96;47.89
62201;BME280;48197;42.732;27.192;2023-04-07T11:45:44;99793.47;;;14.47;48.38
62201;BME280;48197;42.732;27.192;2023-04-07T11:48:28;99799.03;;;15.20;47.65
62201;BME280;48197;42.732;27.192;2023-04-07T11:50:54;99792.75;;;15.49;45.99
62201;BME280;48197;42.732;27.192;2023-04-07T11:53:24;99789.28;;;15.78;46.04
62201;BME280;48197;42.732;27.192;2023-04-07T11:55:59;99786.41;;;15.81;45.28
62201;BME280;48197;42.732;27.192;2023-04-07T11:58:25;99794.25;;;15.54;45.91
62201;BME280;48197;42.732;27.192;2023-04-07T12:00:55;99793.72;;;15.42;46.67
62201;BME280;48197;42.732;27.192;2023-04-07T12:03:22;99792.50;;;15.43;46.65
62201;BME280;48197;42.732;27.192;2023-04-07T12:05:49;99794.25;;;15.54;46.80
62201;BME280;48197;42.732;27.192;2023-04-07T12:08:16;99787.03;;;15.40;47.21
62201;BME280;48197;42.732;27.192;2023-04-07T12:10:44;99784.13;;;16.35;46.51
62201;BME280;48197;42.732;27.192;2023-04-07T12:13:11;99780.59;;;17.37;45.06
62201;BME280;48197;42.732;27.192;2023-04-07T12:15:37;99781.59;;;17.43;43.66
62201;BME280;48197;42.732;27.192;2023-04-07T12:18:03;99780.31;;;16.96;42.87
62201;BME280;48197;42.732;27.192;2023-04-07T12:20:31;99769.16;;;16.83;44.83
62201;BME280;48197;42.732;27.192;2023-04-07T12:22:57;99774.66;;;16.45;44.56
62201;BME280;48197;42.732;27.192;2023-04-07T12:25:25;99779.84;;;15.88;44.80
62201;BME280;48197;42.732;27.192;2023-04-07T12:27:52;99781.50;;;14.87;46.12
62201;BME280;48197;42.732;27.192;2023-04-07T12:30:18;99777.63;;;15.34;46.93
62201;BME280;48197;42.732;27.192;2023-04-07T12:32:46;99779.53;;;16.83;44.45
62201;BME280;48197;42.732;27.192;2023-04-07T12:35:13;99764.13;;;17.64;42.96
62201;BME280;48197;42.732;27.192;2023-04-07T12:37:39;99770.19;;;19.04;40.34
62201;BME280;48197;42.732;27.192;2023-04-07T12:40:06;99769.50;;;20.33;38.63
62201;BME280;48197;42.732;27.192;2023-04-07T12:42:32;99773.38;;;19.25;37.46
62201;BME280;48197;42.732;27.192;2023-04-07T12:44:59;99771.16;;;17.21;40.69
62201;BME280;48197;42.732;27.192;2023-04-07T12:47:26;99777.91;;;16.01;42.44
62201;BME280;48197;42.732;27.192;2023-04-07T12:49:53;99783.72;;;15.12;43.88
62201;BME280;48197;42.732;27.192;2023-04-07T12:52:19;99777.03;;;15.09;44.80
62201;BME280;48197;42.732;27.192;2023-04-07T12:54:46;99780.03;;;15.81;44.11
62201;BME280;48197;42.732;27.192;2023-04-07T12:57:13;99770.66;;;16.46;43.20
62201;BME280;48197;42.732;27.192;2023-04-07T12:59:39;99770.66;;;16.46;41.99
62201;BME280;48197;42.732;27.192;2023-04-07T13:02:06;99773.94;;;16.28;43.54
62201;BME280;48197;42.732;27.192;2023-04-07T13:04:33;99772.41;;;16.82;42.11
62201;BME280;48197;42.732;27.192;2023-04-07T13:06:59;99773.69;;;16.09;43.19
62201;BME280;48197;42.732;27.192;2023-04-07T13:09:27;99771.09;;;15.07;44.93
62201;BME280;48197;42.732;27.192;2023-04-07T13:11:54;99770.53;;;14.43;45.98
62201;BME280;48197;42.732;27.192;2023-04-07T13:14:22;99771.81;;;13.99;46.65
62201;BME280;48197;42.732;27.192;2023-04-07T13:16:48;99779.44;;;13.51;47.71
62201;BME280;48197;42.732;27.192;2023-04-07T13:19:15;99776.13;;;13.36;49.03
62201;BME280;48197;42.732;27.192;2023-04-07T13:21:42;99772.94;;;13.11;49.02
62201;BME280;48197;42.732;27.192;2023-04-07T13:24:08;99765.69;;;13.17;49.41
62201;BME280;48197;42.732;27.192;2023-04-07T13:26:35;99770.84;;;13.42;49.25
62201;BME280;48197;42.732;27.192;2023-04-07T13:29:01;99770.56;;;13.60;49.29
62201;BME280;48197;42.732;27.192;2023-04-07T13:31:28;99770.81;;;13.89;49.21
62201;BME280;48197;42.732;27.192;2023-04-07T13:33:55;99772.75;;;14.12;48.70
62201;BME280;48197;42.732;27.192;2023-04-07T13:36:21;99767.78;;;14.23;48.09
62201;BME280;48197;42.732;27.192;2023-04-07T13:38:48;99770.06;;;15.01;47.28
62201;BME280;48197;42.732;27.192;2023-04-07T13:41:15;99763.72;;;15.17;46.26
62201;BME280;48197;42.732;27.192;2023-04-07T13:43:41;99772.50;;;16.23;44.75
62201;BME280;48197;42.732;27.192;2023-04-07T13:46:11;99763.78;;;17.14;42.44